Pickstown, SD (57367)

4:26 PM CDT on October 31, 2014 (GMT -0500)
RAWS LAKE ANDES SD US | Change Station
CLOSE
Current Station
Personal Weather Station
Location: Geddes, SD
Elevation: 1709 ft
Nearby Weather Stations

Elev 1709 ft 43.26 °N, 98.76 °W | Updated 45 minutes ago

Clear
Clear
42 °F
Feels Like 35 °F
N
12
Wind Variable Wind from SSE
Gusts 16.0 mph

Today
High -- | Low -- °F
--% Chance of Precip.
Yesterday
High -- | Low -- °F
Precip. -- in
8:07 AM 6:27 PM
First Quarter, 59% visible
Pressure 30.42 in
Visibility 10.0 miles
Clouds Clear
Windchill 35 °F
Dew Point 16 °F
Humidity 35%
Rainfall 0.00 in
Snow Depth Not available.
UV 2 out of 12
Pollen .10 out of 12
Air Quality Not available.
Flu Activity Not available.
METAR KONL 312115Z AUTO 16009KT 10SM CLR 06/M09 A3042 RMK AO2 T00601090

More Conditions Fewer Conditions

Pressure 30.42 in
Visibility 10.0 miles
Clouds Clear
Windchill 35 °F
Dew Point 16 °F
Humidity 35%
Rainfall 0.00 in
Snow Depth Not available.
UV 2 out of 12
Pollen .10 out of 12
Air Quality Not available.
Flu Activity Not available.
METAR KONL 312115Z AUTO 16009KT 10SM CLR 06/M09 A3042 RMK AO2 T00601090

More Conditions Fewer Conditions

10-Day Weather Forecast

Almanac

Astronomy

Oct. 31, 2014 Rise Set
Actual Time
Civil Twilight
Nautical Twilight
Astronomical Twilight
Moon
Length of Visible Light
Length of Day
Tomorrow will be .
, % of the Moon is Illuminated

Today's Extremes

State Highs State Lows

Community

WunderPhotos

Upload Photos

1,766,734 photos uploaded!

WunderBlogs® & News

Nearby

Air Quality

  Air Quality AQ Index Pollutant
Not available.

Snow Depth

Station Depth Elevation

Earthquake Activity

City Distance Mag. Time & Date
Minimum magnitude displayed is 2.5.

Coastal Water Temperatures

Place Temperature

Nearby Weather Stations